createdAt,value
2023-05-09T00:01:18.448Z,101229.00
2023-05-09T00:04:21.412Z,101237.41
2023-05-09T00:07:24.032Z,101226.16
2023-05-09T00:10:27.557Z,101215.16
2023-05-09T00:13:30.076Z,101214.50
2023-05-09T00:16:33.165Z,101220.09
2023-05-09T00:19:35.678Z,101221.44
2023-05-09T00:22:41.667Z,101214.38
2023-05-09T00:25:44.400Z,101214.94
2023-05-09T00:28:46.844Z,101209.81
2023-05-09T00:31:49.744Z,101216.13
2023-05-09T00:34:52.874Z,101208.16
2023-05-09T00:37:55.472Z,101195.25
2023-05-09T00:40:58.112Z,101205.72
2023-05-09T00:44:00.552Z,101210.16
2023-05-09T00:47:03.118Z,101207.69
2023-05-09T00:50:06.555Z,101201.41
2023-05-09T00:53:09.264Z,101207.44
2023-05-09T00:56:12.336Z,101211.22
2023-05-09T00:59:16.957Z,101210.16
2023-05-09T01:02:20.316Z,101204.47
2023-05-09T01:05:31.090Z,101196.09
2023-05-09T01:08:44.596Z,101207.78
2023-05-09T01:11:53.041Z,101209.78
2023-05-09T01:15:18.484Z,101201.72
2023-05-09T01:18:45.639Z,101212.38
2023-05-09T01:21:48.320Z,101214.09
2023-05-09T01:25:13.311Z,101205.19
2023-05-09T01:29:12.480Z,101206.09
2023-05-09T01:32:20.119Z,101203.50
2023-05-09T01:35:23.245Z,101208.06
2023-05-09T01:38:26.140Z,101203.38
2023-05-09T01:41:30.247Z,101193.56
2023-05-09T01:44:39.819Z,101192.03
2023-05-09T01:47:42.081Z,101193.19
2023-05-09T01:50:44.750Z,101189.53
2023-05-09T01:53:47.798Z,101179.56
2023-05-09T01:56:50.285Z,101187.91
2023-05-09T01:59:52.738Z,101188.72
2023-05-09T02:02:55.380Z,101186.31
2023-05-09T02:05:58.127Z,101184.41
2023-05-09T02:09:00.748Z,101176.38
2023-05-09T02:12:04.741Z,101164.56
2023-05-09T02:15:08.887Z,101164.72
2023-05-09T02:18:16.970Z,101169.94
2023-05-09T02:21:19.529Z,101174.47
2023-05-09T02:24:22.199Z,101173.03
2023-05-09T02:27:25.633Z,101171.13
2023-05-09T02:30:29.955Z,101172.22
2023-05-09T02:33:33.414Z,101168.19
2023-05-09T02:36:35.879Z,101172.22
2023-05-09T02:39:38.269Z,101167.41
2023-05-09T02:42:41.001Z,101162.13
2023-05-09T02:45:43.993Z,101161.88
2023-05-09T02:48:46.520Z,101169.66
2023-05-09T02:51:48.954Z,101162.66
2023-05-09T02:54:51.581Z,101167.63
2023-05-09T02:58:05.669Z,101163.31
2023-05-09T03:01:12.284Z,101161.06
2023-05-09T03:04:15.018Z,101162.66
2023-05-09T03:07:17.551Z,101155.84
2023-05-09T03:10:20.217Z,101158.13
2023-05-09T03:13:23.102Z,101161.41
2023-05-09T03:16:25.695Z,101154.81
2023-05-09T03:19:28.220Z,101160.81
2023-05-09T03:22:30.740Z,101159.22
2023-05-09T03:25:37.834Z,101149.78
2023-05-09T03:28:41.691Z,101169.00
2023-05-09T03:31:44.370Z,101166.00
2023-05-09T03:34:47.047Z,101162.19
2023-05-09T03:37:49.537Z,101150.00
2023-05-09T03:40:53.790Z,101172.84
2023-05-09T03:43:57.361Z,101173.44
2023-05-09T03:46:59.950Z,101174.34
2023-05-09T03:50:07.043Z,101173.72
2023-05-09T03:53:10.780Z,101171.03
2023-05-09T03:56:14.450Z,101180.94
2023-05-09T03:59:22.377Z,101179.41
2023-05-09T04:02:25.209Z,101179.81
2023-05-09T04:05:27.917Z,101173.41
2023-05-09T04:08:32.958Z,101174.75
2023-05-09T04:11:36.808Z,101174.59
2023-05-09T04:14:46.749Z,101174.31
2023-05-09T04:17:50.922Z,101170.78
2023-05-09T04:20:53.753Z,101174.72
2023-05-09T04:23:56.773Z,101176.66
2023-05-09T04:27:06.458Z,101176.25
2023-05-09T04:30:11.026Z,101175.06
2023-05-09T04:33:14.220Z,101171.53
2023-05-09T04:36:18.320Z,101166.44
2023-05-09T04:39:21.787Z,101175.34
2023-05-09T04:42:41.383Z,101176.88
2023-05-09T04:45:45.184Z,101176.31
2023-05-09T04:48:48.510Z,101176.47
2023-05-09T04:51:51.796Z,101168.34
2023-05-09T04:54:54.738Z,101172.22
2023-05-09T04:58:03.015Z,101177.03
2023-05-09T05:01:06.108Z,101176.13
2023-05-09T05:04:08.780Z,101172.00
2023-05-09T05:07:11.500Z,101175.25
2023-05-09T05:10:14.500Z,101178.06
2023-05-09T05:13:21.714Z,101173.97
2023-05-09T05:16:28.599Z,101173.84
2023-05-09T05:19:32.222Z,101174.75
2023-05-09T05:22:38.216Z,101180.22
2023-05-09T05:25:41.249Z,101187.19
2023-05-09T05:28:43.843Z,101194.75
2023-05-09T05:31:46.716Z,101178.34
2023-05-09T05:34:49.801Z,101184.34
2023-05-09T05:37:52.711Z,101177.06
2023-05-09T05:40:55.378Z,101181.75
2023-05-09T05:43:59.505Z,101178.16
2023-05-09T05:47:02.015Z,101174.78
2023-05-09T05:50:07.091Z,101170.88
2023-05-09T05:53:11.556Z,101176.44
2023-05-09T05:56:14.669Z,101175.88
2023-05-09T05:59:17.270Z,101182.44
2023-05-09T06:02:19.897Z,101188.22
2023-05-09T06:05:23.422Z,101183.50
2023-05-09T06:08:27.099Z,101177.66
2023-05-09T06:11:29.546Z,101180.75
2023-05-09T06:14:32.241Z,101183.59
2023-05-09T06:17:35.163Z,101180.25
2023-05-09T06:20:37.721Z,101178.06
2023-05-09T06:23:47.293Z,101183.84
2023-05-09T06:26:59.927Z,101173.66
2023-05-09T06:30:08.374Z,101179.34
2023-05-09T06:33:17.031Z,101171.81
2023-05-09T06:36:19.684Z,101166.66
2023-05-09T06:39:22.660Z,101159.06
2023-05-09T06:42:25.549Z,101166.38
2023-05-09T06:45:28.327Z,101166.72
2023-05-09T06:48:30.847Z,101161.97
2023-05-09T06:51:33.823Z,101165.00
2023-05-09T06:54:36.287Z,101158.97
2023-05-09T06:57:40.478Z,101150.56
2023-05-09T07:00:43.400Z,101157.88
2023-05-09T07:03:47.631Z,101143.97
2023-05-09T07:06:50.082Z,101146.81
2023-05-09T07:09:57.901Z,101132.38
2023-05-09T07:13:06.709Z,101137.13
2023-05-09T07:16:10.555Z,101143.03
2023-05-09T07:19:13.020Z,101133.75
2023-05-09T07:22:15.640Z,101134.06
2023-05-09T07:25:18.361Z,101123.09
2023-05-09T07:28:20.921Z,101123.56
2023-05-09T07:31:23.342Z,101122.31
2023-05-09T07:34:26.047Z,101110.44
2023-05-09T07:37:28.840Z,101111.63
2023-05-09T07:40:31.927Z,101111.13
2023-05-09T07:43:34.367Z,101094.56
2023-05-09T07:46:42.119Z,101110.69
2023-05-09T07:49:46.610Z,101096.00
2023-05-09T07:52:49.720Z,101103.44
2023-05-09T07:55:52.368Z,101096.59
2023-05-09T07:58:55.863Z,101092.44
2023-05-09T08:01:58.450Z,101086.44
2023-05-09T08:05:01.327Z,101089.41
2023-05-09T08:08:04.391Z,101086.78
2023-05-09T08:11:06.804Z,101072.06
2023-05-09T08:14:10.513Z,101083.69
2023-05-09T08:17:12.946Z,101073.16
2023-05-09T08:20:15.601Z,101078.38
2023-05-09T08:23:18.003Z,101068.75
2023-05-09T08:26:22.671Z,101067.19
2023-05-09T08:29:25.219Z,101059.38
2023-05-09T08:32:27.910Z,101062.06
2023-05-09T08:35:30.412Z,101048.88
2023-05-09T08:38:32.931Z,101058.66
2023-05-09T08:41:39.003Z,101064.00
2023-05-09T08:44:41.702Z,101052.47
2023-05-09T08:47:44.676Z,101051.59
2023-05-09T08:50:47.325Z,101048.94
2023-05-09T08:53:52.561Z,101054.25
2023-05-09T08:56:55.235Z,101043.66
2023-05-09T08:59:57.993Z,101048.06
2023-05-09T09:03:02.188Z,101031.25
2023-05-09T09:06:04.862Z,101044.47
2023-05-09T09:09:09.050Z,101033.78
2023-05-09T09:12:15.821Z,101037.34
2023-05-09T09:15:18.500Z,101029.22
2023-05-09T09:18:27.082Z,101028.19
2023-05-09T09:21:32.192Z,101026.50
2023-05-09T09:24:34.725Z,101036.09
2023-05-09T09:27:37.353Z,101018.41
2023-05-09T09:30:48.041Z,101028.00
2023-05-09T09:33:51.302Z,101024.09
2023-05-09T09:36:54.191Z,101024.88
2023-05-09T09:39:57.222Z,101020.69
2023-05-09T09:42:59.916Z,101029.50
2023-05-09T09:46:03.620Z,101026.97
2023-05-09T09:49:06.242Z,101027.63
2023-05-09T09:52:08.589Z,101020.97
2023-05-09T09:55:12.163Z,101024.00
2023-05-09T09:58:18.751Z,101025.69
2023-05-09T10:01:21.360Z,101013.47
2023-05-09T10:04:24.317Z,101015.16
2023-05-09T10:07:26.841Z,101005.22
2023-05-09T10:10:36.750Z,101009.13
2023-05-09T10:13:39.459Z,100997.13
2023-05-09T10:16:44.611Z,101001.69
2023-05-09T10:19:47.802Z,100987.28
2023-05-09T10:22:51.122Z,100998.63
2023-05-09T10:26:00.781Z,101013.38
2023-05-09T10:29:03.266Z,101000.22
2023-05-09T10:32:20.813Z,100988.97
2023-05-09T10:35:26.555Z,100981.59
2023-05-09T10:38:29.111Z,100987.28
2023-05-09T10:41:31.638Z,100995.34
2023-05-09T10:44:34.249Z,100984.44
2023-05-09T10:47:37.132Z,100988.41
2023-05-09T10:50:40.530Z,100981.66
2023-05-09T10:53:48.009Z,100976.28
2023-05-09T10:56:50.617Z,100978.66
2023-05-09T10:59:53.156Z,100978.84
2023-05-09T11:03:08.292Z,100973.59
2023-05-09T11:06:11.135Z,100969.41
2023-05-09T11:09:37.908Z,100985.84
2023-05-09T11:12:59.986Z,100977.50
2023-05-09T11:16:02.592Z,100970.16
2023-05-09T11:19:05.996Z,100968.50
2023-05-09T11:22:32.546Z,100970.69
2023-05-09T11:25:36.198Z,100963.22
2023-05-09T11:28:38.982Z,100959.69
2023-05-09T11:32:07.296Z,100949.59
2023-05-09T11:35:15.644Z,100950.44
2023-05-09T11:38:21.358Z,100947.28
2023-05-09T11:41:23.855Z,100945.91
2023-05-09T11:44:27.911Z,100945.25
2023-05-09T11:47:31.079Z,100948.31
2023-05-09T11:50:33.650Z,100955.47
2023-05-09T11:53:45.168Z,100946.94
2023-05-09T11:56:47.506Z,100936.53
2023-05-09T11:59:49.960Z,100939.38
2023-05-09T12:02:53.471Z,100935.66
2023-05-09T12:05:56.233Z,100935.88
2023-05-09T12:08:58.716Z,100928.34
2023-05-09T12:12:01.611Z,100912.97
2023-05-09T12:15:07.908Z,100900.81
2023-05-09T12:18:10.539Z,100913.13
2023-05-09T12:21:12.981Z,100912.91
2023-05-09T12:24:21.435Z,100907.97
2023-05-09T12:27:23.974Z,100912.91
2023-05-09T12:30:26.522Z,100905.66
2023-05-09T12:33:29.171Z,100898.47
2023-05-09T12:36:36.044Z,100899.19
2023-05-09T12:39:38.487Z,100895.44
2023-05-09T12:42:43.743Z,100900.75
2023-05-09T12:45:46.196Z,100893.84
2023-05-09T12:48:49.547Z,100903.72
2023-05-09T12:51:53.745Z,100891.31
2023-05-09T12:54:56.336Z,100875.34
2023-05-09T12:57:59.973Z,100869.97
2023-05-09T13:01:03.999Z,100862.91
2023-05-09T13:04:07.682Z,100867.63
2023-05-09T13:07:13.133Z,100863.44
2023-05-09T13:10:21.704Z,100858.84
2023-05-09T13:13:27.894Z,100861.53
2023-05-09T13:16:30.658Z,100849.91
2023-05-09T13:19:39.394Z,100843.44
2023-05-09T13:22:41.904Z,100840.31
2023-05-09T13:25:44.787Z,100832.84
2023-05-09T13:28:47.349Z,100839.84
2023-05-09T13:31:49.673Z,100847.56
2023-05-09T13:34:52.588Z,100831.56
2023-05-09T13:37:55.051Z,100828.38
2023-05-09T13:40:57.953Z,100832.56
2023-05-09T13:44:00.462Z,100836.16
2023-05-09T13:47:02.901Z,100832.72
2023-05-09T13:50:06.132Z,100833.59
2023-05-09T13:53:08.560Z,100831.91
2023-05-09T13:56:11.044Z,100814.78
2023-05-09T13:59:13.815Z,100810.50
2023-05-09T14:02:16.312Z,100808.34
2023-05-09T14:05:18.924Z,100794.06
2023-05-09T14:08:21.552Z,100795.47
2023-05-09T14:11:26.183Z,100795.72
2023-05-09T14:14:28.913Z,100794.03
2023-05-09T14:17:31.503Z,100795.66
2023-05-09T14:20:37.085Z,100795.31
2023-05-09T14:23:39.510Z,100798.91
2023-05-09T14:26:42.136Z,100787.13
2023-05-09T14:29:44.777Z,100790.75
2023-05-09T14:32:47.294Z,100784.13
2023-05-09T14:35:49.875Z,100783.56
2023-05-09T14:38:52.875Z,100784.38
2023-05-09T14:41:55.961Z,100775.44
2023-05-09T14:44:58.856Z,100766.34
2023-05-09T14:48:02.653Z,100764.09
2023-05-09T14:51:05.552Z,100767.50
2023-05-09T14:54:08.383Z,100771.38
2023-05-09T14:57:10.797Z,100760.06
2023-05-09T15:00:21.457Z,100766.50
2023-05-09T15:03:25.070Z,100753.81
2023-05-09T15:06:29.235Z,100745.16
2023-05-09T15:09:31.826Z,100759.09
2023-05-09T15:12:34.232Z,100753.53
2023-05-09T15:15:39.868Z,100764.59
2023-05-09T15:18:46.252Z,100758.22
2023-05-09T15:21:48.721Z,100749.09
2023-05-09T15:24:51.234Z,100750.31
2023-05-09T15:27:54.185Z,100749.81
2023-05-09T15:30:58.207Z,100734.78
2023-05-09T15:34:01.429Z,100744.00
2023-05-09T15:37:04.068Z,100731.88
2023-05-09T15:40:07.907Z,100732.03
2023-05-09T15:43:10.459Z,100724.34
2023-05-09T15:46:13.323Z,100735.94
2023-05-09T15:49:15.834Z,100713.38
2023-05-09T15:52:18.246Z,100723.94
2023-05-09T15:55:20.760Z,100725.09
2023-05-09T15:58:23.614Z,100718.50
2023-05-09T16:01:26.327Z,100722.59
2023-05-09T16:04:28.785Z,100729.19
2023-05-09T16:07:33.259Z,100718.75
2023-05-09T16:10:36.696Z,100725.06
2023-05-09T16:13:39.208Z,100718.06
2023-05-09T16:16:42.988Z,100720.66
2023-05-09T16:19:45.491Z,100710.06
2023-05-09T16:22:48.127Z,100703.94
2023-05-09T16:25:50.763Z,100722.50
2023-05-09T16:28:53.133Z,100722.59
2023-05-09T16:31:55.896Z,100716.34
2023-05-09T16:34:58.353Z,100716.34
2023-05-09T16:38:01.126Z,100702.16
2023-05-09T16:41:03.710Z,100694.22
2023-05-09T16:44:06.304Z,100690.69
2023-05-09T16:47:09.125Z,100696.94
2023-05-09T16:50:11.666Z,100696.09
2023-05-09T16:53:14.698Z,100692.63
2023-05-09T16:56:17.137Z,100690.09
2023-05-09T16:59:20.310Z,100688.34
2023-05-09T17:02:22.714Z,100691.88
2023-05-09T17:05:25.511Z,100689.22
2023-05-09T17:08:27.882Z,100690.09
2023-05-09T17:11:30.444Z,100683.03
2023-05-09T17:14:33.313Z,100680.41
2023-05-09T17:17:36.110Z,100692.72
2023-05-09T17:20:38.694Z,100685.63
2023-05-09T17:23:41.596Z,100686.50
2023-05-09T17:26:43.991Z,100692.66
2023-05-09T17:29:46.450Z,100684.72
2023-05-09T17:32:49.138Z,100697.88
2023-05-09T17:35:51.532Z,100685.56
2023-05-09T17:38:53.969Z,100688.16
2023-05-09T17:41:56.742Z,100685.44
2023-05-09T17:44:59.284Z,100678.38
2023-05-09T17:48:02.294Z,100672.16
2023-05-09T17:51:04.943Z,100686.16
2023-05-09T17:54:07.628Z,100686.94
2023-05-09T17:57:10.177Z,100687.84
2023-05-09T18:00:13.345Z,100693.00
2023-05-09T18:03:16.426Z,100693.81
2023-05-09T18:06:19.348Z,100693.81
2023-05-09T18:09:22.990Z,100694.53
2023-05-09T18:12:28.908Z,100691.00
2023-05-09T18:15:32.103Z,100692.59
2023-05-09T18:18:35.759Z,100694.16
2023-05-09T18:21:38.856Z,100699.28
2023-05-09T18:24:41.351Z,100698.25
2023-05-09T18:27:43.876Z,100702.63
2023-05-09T18:30:46.300Z,100697.31
2023-05-09T18:33:49.222Z,100705.88
2023-05-09T18:36:52.585Z,100719.06
2023-05-09T18:39:55.017Z,100714.41
2023-05-09T18:42:57.654Z,100715.00
2023-05-09T18:46:00.293Z,100716.03
2023-05-09T18:49:05.960Z,100723.97
2023-05-09T18:52:09.413Z,100728.25
2023-05-09T18:55:14.833Z,100726.34
2023-05-09T18:58:17.416Z,100721.22
2023-05-09T19:01:19.960Z,100725.47
2023-05-09T19:04:22.845Z,100724.56
2023-05-09T19:07:25.652Z,100732.34
2023-05-09T19:10:28.224Z,100729.63
2023-05-09T19:13:33.557Z,100725.16
2023-05-09T19:16:36.126Z,100726.88
2023-05-09T19:19:38.710Z,100718.00
2023-05-09T19:22:45.581Z,100727.56
2023-05-09T19:25:49.912Z,100708.13
2023-05-09T19:28:54.715Z,100719.66
2023-05-09T19:31:57.354Z,100721.22
2023-05-09T19:34:59.994Z,100715.97
2023-05-09T19:38:02.674Z,100722.88
2023-05-09T19:41:05.291Z,100721.97
2023-05-09T19:44:08.376Z,100721.97
2023-05-09T19:47:11.013Z,100717.56
2023-05-09T19:50:13.764Z,100707.59
2023-05-09T19:53:16.496Z,100711.16
2023-05-09T19:56:18.935Z,100710.09
2023-05-09T19:59:21.362Z,100711.97
2023-05-09T20:02:24.001Z,100715.34
2023-05-09T20:05:45.404Z,100711.81
2023-05-09T20:08:47.939Z,100702.97
2023-05-09T20:11:50.728Z,100709.00
2023-05-09T20:14:53.207Z,100712.59
2023-05-09T20:17:55.702Z,100714.28
2023-05-09T20:20:59.832Z,100703.78
2023-05-09T20:24:02.621Z,100706.13
2023-05-09T20:27:04.980Z,100707.06
2023-05-09T20:30:07.978Z,100703.50
2023-05-09T20:33:10.764Z,100707.00
2023-05-09T20:36:13.439Z,100698.09
2023-05-09T20:39:17.819Z,100690.22
2023-05-09T20:42:20.193Z,100691.06
2023-05-09T20:45:22.980Z,100696.34
2023-05-09T20:48:26.026Z,100698.09
2023-05-09T20:51:28.264Z,100689.13
2023-05-09T20:54:31.101Z,100687.28
2023-05-09T20:57:33.464Z,100682.72
2023-05-09T21:00:35.851Z,100683.56
2023-05-09T21:03:38.676Z,100686.84
2023-05-09T21:06:41.220Z,100678.97
2023-05-09T21:09:43.843Z,100678.03
2023-05-09T21:12:46.452Z,100677.72
2023-05-09T21:15:50.896Z,100675.09
2023-05-09T21:18:53.493Z,100677.78
2023-05-09T21:21:56.291Z,100667.41
2023-05-09T21:24:58.984Z,100673.50
2023-05-09T21:28:01.594Z,100677.06
2023-05-09T21:31:04.195Z,100675.34
2023-05-09T21:34:10.280Z,100676.34
2023-05-09T21:37:13.184Z,100673.72
2023-05-09T21:40:16.366Z,100666.66
2023-05-09T21:43:19.414Z,100665.84
2023-05-09T21:46:21.915Z,100657.25
2023-05-09T21:49:24.425Z,100663.09
2023-05-09T21:52:26.847Z,100663.81
2023-05-09T21:55:29.337Z,100663.69
2023-05-09T21:58:31.978Z,100654.94
2023-05-09T22:01:34.469Z,100661.16
2023-05-09T22:04:37.246Z,100661.22
2023-05-09T22:07:39.660Z,100662.03
2023-05-09T22:10:41.978Z,100665.72
2023-05-09T22:13:44.403Z,100655.25
2023-05-09T22:16:47.087Z,100665.63
2023-05-09T22:19:49.815Z,100667.44
2023-05-09T22:22:52.306Z,100669.34
2023-05-09T22:25:54.989Z,100663.19
2023-05-09T22:28:57.941Z,100661.59
2023-05-09T22:32:01.309Z,100669.50
2023-05-09T22:35:03.995Z,100668.84
2023-05-09T22:38:06.629Z,100658.06
2023-05-09T22:41:09.269Z,100666.03
2023-05-09T22:44:11.665Z,100665.22
2023-05-09T22:47:14.132Z,100664.31
2023-05-09T22:50:17.212Z,100660.06
2023-05-09T22:53:19.827Z,100653.78
2023-05-09T22:56:22.410Z,100655.00
2023-05-09T22:59:25.471Z,100661.25
2023-05-09T23:02:28.144Z,100663.06
2023-05-09T23:09:28.102Z,100651.44
2023-05-09T23:12:30.917Z,100662.00
2023-05-09T23:15:33.613Z,100651.38
2023-05-09T23:18:35.990Z,100661.09
2023-05-09T23:21:38.485Z,100650.44
2023-05-09T23:24:41.310Z,100660.72
2023-05-09T23:27:45.270Z,100658.75
2023-05-09T23:30:47.904Z,100662.31
2023-05-09T23:33:50.743Z,100652.81
2023-05-09T23:36:53.270Z,100657.94
2023-05-09T23:39:56.234Z,100652.59
2023-05-09T23:42:58.896Z,100652.53
2023-05-09T23:46:02.167Z,100643.69
2023-05-09T23:49:04.633Z,100643.47
2023-05-09T23:52:07.041Z,100642.38
2023-05-09T23:55:09.814Z,100643.16
2023-05-09T23:58:12.758Z,100632.59
